createdAt,value
2023-04-18T00:00:26.553Z,5.93
2023-04-18T00:02:55.323Z,5.40
2023-04-18T00:05:24.046Z,4.80
2023-04-18T00:07:52.847Z,5.30
2023-04-18T00:10:20.884Z,5.73
2023-04-18T00:12:48.948Z,5.70
2023-04-18T00:15:18.578Z,6.00
2023-04-18T00:17:48.233Z,6.47
2023-04-18T00:20:16.213Z,6.10
2023-04-18T00:22:46.451Z,5.33
2023-04-18T00:25:14.826Z,5.40
2023-04-18T00:27:43.066Z,5.30
2023-04-18T00:30:12.544Z,5.30
2023-04-18T00:32:41.982Z,5.70
2023-04-18T00:35:10.189Z,5.97
2023-04-18T00:37:38.437Z,5.40
2023-04-18T00:40:07.590Z,4.93
2023-04-18T00:42:35.948Z,6.37
2023-04-18T00:45:04.038Z,5.40
2023-04-18T00:47:32.677Z,5.60
2023-04-18T00:50:02.174Z,6.00
2023-04-18T00:52:30.839Z,6.10
2023-04-18T00:54:58.755Z,5.50
2023-04-18T00:57:27.241Z,5.30
2023-04-18T00:59:55.137Z,5.50
2023-04-18T01:02:23.756Z,5.47
2023-04-18T01:04:52.275Z,5.57
2023-04-18T01:07:21.731Z,5.30
2023-04-18T01:09:49.661Z,5.47
2023-04-18T01:12:17.724Z,5.50
2023-04-18T01:14:45.689Z,5.43
2023-04-18T01:17:14.046Z,5.50
2023-04-18T01:19:42.196Z,5.17
2023-04-18T01:22:10.686Z,5.30
2023-04-18T01:24:39.980Z,5.30
2023-04-18T01:27:08.227Z,5.20
2023-04-18T01:29:37.851Z,5.50
2023-04-18T01:32:07.384Z,5.20
2023-04-18T01:34:35.451Z,5.07
2023-04-18T01:37:03.517Z,5.03
2023-04-18T01:39:31.543Z,5.20
2023-04-18T01:42:01.993Z,5.20
2023-04-18T01:44:30.020Z,5.13
2023-04-18T01:46:58.440Z,5.70
2023-04-18T01:49:26.495Z,5.40
2023-04-18T01:51:54.952Z,5.40
2023-04-18T01:54:23.002Z,5.23
2023-04-18T01:56:51.505Z,5.30
2023-04-18T01:59:21.009Z,5.40
2023-04-18T02:01:49.530Z,5.40
2023-04-18T02:04:17.816Z,5.40
2023-04-18T02:06:46.175Z,5.40
2023-04-18T02:09:14.638Z,5.50
2023-04-18T02:11:42.728Z,5.13
2023-04-18T02:14:11.371Z,5.50
2023-04-18T02:16:41.542Z,5.40
2023-04-18T02:19:09.664Z,5.40
2023-04-18T02:21:37.579Z,5.70
2023-04-18T02:24:05.866Z,4.93
2023-04-18T02:26:33.871Z,5.17
2023-04-18T02:29:02.507Z,5.43
2023-04-18T02:31:30.565Z,5.20
2023-04-18T02:34:00.417Z,5.37
2023-04-18T02:36:28.478Z,4.90
2023-04-18T02:38:57.050Z,5.30
2023-04-18T02:41:25.128Z,5.10
2023-04-18T02:43:53.597Z,4.90
2023-04-18T02:46:21.513Z,5.40
2023-04-18T02:48:50.049Z,4.93
2023-04-18T02:51:20.058Z,5.13
2023-04-18T02:53:48.707Z,5.50
2023-04-18T02:56:17.403Z,5.00
2023-04-18T02:58:45.336Z,5.20
2023-04-18T03:01:13.319Z,5.70
2023-04-18T03:03:41.298Z,4.60
2023-04-18T03:06:09.265Z,5.17
2023-04-18T03:08:38.832Z,5.20
2023-04-18T03:11:06.867Z,5.00
2023-04-18T03:13:36.456Z,5.57
2023-04-18T03:16:04.685Z,5.37
2023-04-18T03:18:32.722Z,4.90
2023-04-18T03:21:00.817Z,5.87
2023-04-18T03:23:29.058Z,4.90
2023-04-18T03:25:59.073Z,5.47
2023-04-18T03:28:27.073Z,5.17
2023-04-18T03:30:55.212Z,5.40
2023-04-18T03:33:25.492Z,4.83
2023-04-18T03:35:53.962Z,5.20
2023-04-18T03:38:21.892Z,5.17
2023-04-18T03:40:50.207Z,4.83
2023-04-18T03:43:20.546Z,5.33
2023-04-18T03:45:48.578Z,5.23
2023-04-18T03:48:16.902Z,5.60
2023-04-18T03:50:45.003Z,4.90
2023-04-18T03:53:13.058Z,4.60
2023-04-18T03:55:42.673Z,5.00
2023-04-18T03:58:11.180Z,5.13
2023-04-18T04:00:40.563Z,5.10
2023-04-18T04:03:08.820Z,5.13
2023-04-18T04:05:36.912Z,5.10
2023-04-18T04:08:04.935Z,4.80
2023-04-18T04:10:32.987Z,4.70
2023-04-18T04:13:01.065Z,4.87
2023-04-18T04:15:28.940Z,5.00
2023-04-18T04:17:58.743Z,5.43
2023-04-18T04:20:26.781Z,5.00
2023-04-18T04:22:55.829Z,5.17
2023-04-18T04:25:24.636Z,4.83
2023-04-18T04:27:54.054Z,5.00
2023-04-18T04:30:22.764Z,4.97
2023-04-18T04:32:51.516Z,5.03
2023-04-18T04:35:21.031Z,4.47
2023-04-18T04:37:49.915Z,4.87
2023-04-18T04:40:17.879Z,5.10
2023-04-18T04:42:46.348Z,4.77
2023-04-18T04:45:14.297Z,4.97
2023-04-18T04:47:42.286Z,5.00
2023-04-18T04:50:15.225Z,5.00
2023-04-18T04:52:44.603Z,4.87
2023-04-18T04:55:12.579Z,5.03
2023-04-18T04:57:40.609Z,5.00
2023-04-18T05:00:10.101Z,4.80
2023-04-18T05:02:38.327Z,5.17
2023-04-18T05:05:07.236Z,5.30
2023-04-18T05:07:35.181Z,5.30
2023-04-18T05:10:05.148Z,4.27
2023-04-18T05:12:33.075Z,4.40
2023-04-18T05:15:01.393Z,4.83
2023-04-18T05:17:29.368Z,5.00
2023-04-18T05:19:57.745Z,5.03
2023-04-18T05:22:26.137Z,4.50
2023-04-18T05:24:54.485Z,4.97
2023-04-18T05:27:23.893Z,4.43
2023-04-18T05:29:52.371Z,4.90
2023-04-18T05:32:20.385Z,4.87
2023-04-18T05:34:48.837Z,4.90
2023-04-18T05:37:16.948Z,5.20
2023-04-18T05:39:44.850Z,5.40
2023-04-18T05:42:12.704Z,4.90
2023-04-18T05:44:42.398Z,5.27
2023-04-18T05:47:10.476Z,4.70
2023-04-18T05:49:38.819Z,4.77
2023-04-18T05:52:06.812Z,5.27
2023-04-18T05:54:35.203Z,5.10
2023-04-18T05:57:04.592Z,5.20
2023-04-18T05:59:32.902Z,4.90
2023-04-18T06:02:02.774Z,4.70
2023-04-18T06:04:30.926Z,4.40
2023-04-18T06:06:58.995Z,4.87
2023-04-18T06:09:27.009Z,5.10
2023-04-18T06:11:55.068Z,4.90
2023-04-18T06:14:23.052Z,5.20
2023-04-18T06:16:51.579Z,4.27
2023-04-18T06:19:21.042Z,4.57
2023-04-18T06:21:49.843Z,4.80
2023-04-18T06:24:17.842Z,4.90
2023-04-18T06:26:46.173Z,4.93
2023-04-18T06:29:14.242Z,4.60
2023-04-18T06:31:46.006Z,4.87
2023-04-18T06:34:14.320Z,4.50
2023-04-18T06:36:44.010Z,4.20
2023-04-18T06:39:12.648Z,4.73
2023-04-18T06:41:40.876Z,9.70
2023-04-18T06:44:08.940Z,12.33
2023-04-18T06:46:37.215Z,12.37
2023-04-18T06:49:05.349Z,12.90
2023-04-18T06:51:34.470Z,14.10
2023-04-18T06:54:03.887Z,13.10
2023-04-18T06:56:33.043Z,13.17
2023-04-18T06:59:02.208Z,11.90
2023-04-18T07:01:32.114Z,12.37
2023-04-18T07:03:59.948Z,12.47
2023-04-18T07:06:27.757Z,12.07
2023-04-18T07:09:00.017Z,10.93
2023-04-18T07:11:29.860Z,9.57
2023-04-18T07:13:57.779Z,9.10
2023-04-18T07:16:25.665Z,8.47
2023-04-18T07:18:53.642Z,8.40
2023-04-18T07:21:21.554Z,7.73
2023-04-18T07:23:49.386Z,8.00
2023-04-18T07:26:17.306Z,6.70
2023-04-18T07:28:46.767Z,6.50
2023-04-18T07:31:16.981Z,6.27
2023-04-18T07:33:44.918Z,5.80
2023-04-18T07:36:12.798Z,6.50
2023-04-18T07:38:40.974Z,7.00
2023-04-18T07:41:08.669Z,6.53
2023-04-18T07:43:38.568Z,6.30
2023-04-18T07:46:08.144Z,5.90
2023-04-18T07:48:36.494Z,6.60
2023-04-18T07:51:05.052Z,5.90
2023-04-18T07:53:33.274Z,5.80
2023-04-18T07:56:01.172Z,6.03
2023-04-18T07:58:29.536Z,5.80
2023-04-18T08:00:57.568Z,6.20
2023-04-18T08:03:27.752Z,5.87
2023-04-18T08:05:55.974Z,5.60
2023-04-18T08:08:24.340Z,5.10
2023-04-18T08:10:52.411Z,5.80
2023-04-18T08:13:20.207Z,6.10
2023-04-18T08:15:48.424Z,5.60
2023-04-18T08:18:16.478Z,5.20
2023-04-18T08:20:45.930Z,5.80
2023-04-18T08:23:14.297Z,5.13
2023-04-18T08:25:42.302Z,5.47
2023-04-18T08:28:11.524Z,5.63
2023-04-18T08:30:39.755Z,5.70
2023-04-18T08:33:08.150Z,4.70
2023-04-18T08:35:36.414Z,5.00
2023-04-18T08:38:06.389Z,5.00
2023-04-18T08:40:34.275Z,5.10
2023-04-18T08:43:05.164Z,4.97
2023-04-18T08:45:33.326Z,5.47
2023-04-18T08:48:04.054Z,5.50
2023-04-18T08:50:32.447Z,4.83
2023-04-18T08:53:01.008Z,5.40
2023-04-18T08:55:30.557Z,5.07
2023-04-18T08:57:58.562Z,5.00
2023-04-18T09:00:28.018Z,4.53
2023-04-18T09:02:57.364Z,4.73
2023-04-18T09:05:27.364Z,4.63
2023-04-18T09:07:56.172Z,4.50
2023-04-18T09:10:29.131Z,4.33
2023-04-18T09:12:58.714Z,4.70
2023-04-18T09:15:29.183Z,4.77
2023-04-18T09:18:01.649Z,5.00
2023-04-18T09:20:38.536Z,3.57
2023-04-18T09:23:10.530Z,4.10
2023-04-18T09:25:45.320Z,3.90
2023-04-18T09:28:25.058Z,3.90
2023-04-18T09:30:53.596Z,4.20
2023-04-18T09:33:28.140Z,4.13
2023-04-18T09:35:56.547Z,3.50
2023-04-18T09:38:39.798Z,4.00
2023-04-18T09:41:11.166Z,4.23
2023-04-18T09:43:40.631Z,4.00
2023-04-18T09:46:08.920Z,4.33
2023-04-18T09:48:36.984Z,4.57
2023-04-18T09:51:07.502Z,4.37
2023-04-18T09:53:36.030Z,4.37
2023-04-18T09:56:03.985Z,4.57
2023-04-18T09:58:31.884Z,4.30
2023-04-18T10:01:01.612Z,4.30
2023-04-18T10:03:34.875Z,4.67
2023-04-18T10:06:02.887Z,4.60
2023-04-18T10:08:31.106Z,4.50
2023-04-18T10:10:59.076Z,5.07
2023-04-18T10:13:28.040Z,4.23
2023-04-18T10:15:55.987Z,4.70
2023-04-18T10:18:25.801Z,4.37
2023-04-18T10:21:01.204Z,4.27
2023-04-18T10:23:36.243Z,3.90
2023-04-18T10:26:04.658Z,3.60
2023-04-18T10:28:51.156Z,4.10
2023-04-18T10:31:19.331Z,3.90
2023-04-18T10:34:00.752Z,3.90
2023-04-18T10:36:32.871Z,3.53
2023-04-18T10:39:03.044Z,3.43
2023-04-18T10:41:31.643Z,4.37
2023-04-18T10:44:13.125Z,3.93
2023-04-18T10:46:42.296Z,3.70
2023-04-18T10:49:16.001Z,3.70
2023-04-18T10:51:44.482Z,3.43
2023-04-18T10:54:14.349Z,3.63
2023-04-18T10:56:42.497Z,3.63
2023-04-18T10:59:10.364Z,3.97
2023-04-18T11:01:38.765Z,3.53
2023-04-18T11:04:15.996Z,3.70
2023-04-18T11:06:53.117Z,3.20
2023-04-18T11:09:21.249Z,3.20
2023-04-18T11:11:50.758Z,3.57
2023-04-18T11:14:18.681Z,3.60
2023-04-18T11:16:46.913Z,3.20
2023-04-18T11:19:22.008Z,3.03
2023-04-18T11:21:51.742Z,3.10
2023-04-18T11:24:25.541Z,3.27
2023-04-18T11:26:56.046Z,3.80
2023-04-18T11:29:24.096Z,3.97
2023-04-18T11:31:56.012Z,3.43
2023-04-18T11:34:29.538Z,3.33
2023-04-18T11:36:58.625Z,2.67
2023-04-18T11:39:26.353Z,3.37
2023-04-18T11:41:56.329Z,2.67
2023-04-18T11:44:24.701Z,3.10
2023-04-18T11:46:52.807Z,3.03
2023-04-18T11:49:27.816Z,2.80
2023-04-18T11:51:55.721Z,2.70
2023-04-18T11:54:43.857Z,2.93
2023-04-18T11:57:22.093Z,3.27
2023-04-18T11:59:51.336Z,3.10
2023-04-18T12:02:19.487Z,3.20
2023-04-18T12:04:54.441Z,3.27
2023-04-18T12:07:36.106Z,3.33
2023-04-18T12:10:06.515Z,3.23
2023-04-18T12:12:34.325Z,3.20
2023-04-18T12:15:03.382Z,3.57
2023-04-18T12:17:31.751Z,3.27
2023-04-18T12:20:04.237Z,3.03
2023-04-18T12:22:43.011Z,3.13
2023-04-18T12:25:27.564Z,2.77
2023-04-18T12:27:59.171Z,3.03
2023-04-18T12:30:28.706Z,2.80
2023-04-18T12:32:58.388Z,2.73
2023-04-18T12:35:26.923Z,2.90
2023-04-18T12:37:55.485Z,2.70
2023-04-18T12:40:26.615Z,2.53
2023-04-18T12:42:54.936Z,2.80
2023-04-18T12:45:22.968Z,3.10
2023-04-18T12:47:52.238Z,3.10
2023-04-18T12:50:21.342Z,3.07
2023-04-18T12:52:49.185Z,3.53
2023-04-18T12:55:17.321Z,3.00
2023-04-18T12:57:46.746Z,2.90
2023-04-18T13:00:14.934Z,3.17
2023-04-18T13:02:44.145Z,3.40
2023-04-18T13:05:13.206Z,3.30
2023-04-18T13:07:43.038Z,3.50
2023-04-18T13:10:12.310Z,3.30
2023-04-18T13:12:41.132Z,3.37
2023-04-18T13:15:11.110Z,3.00
2023-04-18T13:17:39.623Z,2.90
2023-04-18T13:20:10.685Z,3.37
2023-04-18T13:22:39.076Z,4.00
2023-04-18T13:25:08.622Z,3.50
2023-04-18T13:27:37.185Z,3.47
2023-04-18T13:30:07.065Z,3.20
2023-04-18T13:32:36.907Z,3.20
2023-04-18T13:35:07.629Z,3.10
2023-04-18T13:37:36.053Z,3.27
2023-04-18T13:40:06.532Z,3.20
2023-04-18T13:42:35.248Z,3.13
2023-04-18T13:45:03.322Z,3.23
2023-04-18T13:47:31.893Z,4.20
2023-04-18T13:50:01.217Z,3.27
2023-04-18T13:52:29.422Z,2.90
2023-04-18T13:54:57.691Z,3.27
2023-04-18T13:57:25.623Z,2.80
2023-04-18T13:59:53.578Z,2.70
2023-04-18T14:02:21.513Z,3.13
2023-04-18T14:04:49.922Z,3.00
2023-04-18T14:07:19.199Z,3.00
2023-04-18T14:09:48.297Z,3.10
2023-04-18T14:12:16.254Z,2.90
2023-04-18T14:14:44.156Z,3.00
2023-04-18T14:17:12.165Z,3.30
2023-04-18T14:19:40.244Z,2.87
2023-04-18T14:22:08.231Z,2.90
2023-04-18T14:24:37.728Z,3.03
2023-04-18T14:27:06.090Z,3.07
2023-04-18T14:29:33.950Z,3.73
2023-04-18T14:32:02.268Z,2.83
2023-04-18T14:34:31.856Z,3.10
2023-04-18T14:37:02.982Z,3.40
2023-04-18T14:39:31.115Z,3.10
2023-04-18T14:42:01.440Z,3.30
2023-04-18T14:44:29.460Z,3.47
2023-04-18T14:46:57.491Z,3.40
2023-04-18T14:49:25.483Z,3.17
2023-04-18T14:51:53.792Z,3.03
2023-04-18T14:54:21.704Z,3.30
2023-04-18T14:56:49.613Z,3.43
2023-04-18T14:59:19.134Z,3.17
2023-04-18T15:01:47.756Z,3.20
2023-04-18T15:04:16.214Z,3.00
2023-04-18T15:06:44.460Z,3.17
2023-04-18T15:09:12.758Z,3.53
2023-04-18T15:11:40.695Z,3.10
2023-04-18T15:14:09.875Z,3.23
2023-04-18T15:16:40.929Z,2.97
2023-04-18T15:19:09.142Z,3.10
2023-04-18T15:21:37.061Z,3.40
2023-04-18T15:24:05.505Z,3.77
2023-04-18T15:26:33.494Z,3.20
2023-04-18T15:29:02.411Z,3.43
2023-04-18T15:31:30.949Z,2.93
2023-04-18T15:34:00.315Z,3.40
2023-04-18T15:36:28.684Z,3.00
2023-04-18T15:38:56.817Z,3.20
2023-04-18T15:41:24.963Z,3.13
2023-04-18T15:43:53.610Z,3.80
2023-04-18T15:46:23.886Z,3.00
2023-04-18T15:48:52.799Z,2.80
2023-04-18T15:51:22.172Z,2.80
2023-04-18T15:53:50.461Z,3.07
2023-04-18T15:56:18.427Z,3.33
2023-04-18T15:58:46.919Z,2.70
2023-04-18T16:01:16.081Z,3.37
2023-04-18T16:03:44.213Z,3.40
2023-04-18T16:06:12.594Z,3.20
2023-04-18T16:08:42.034Z,3.80
2023-04-18T16:11:10.425Z,3.17
2023-04-18T16:13:38.529Z,3.63
2023-04-18T16:16:07.548Z,3.10
2023-04-18T16:18:35.527Z,3.73
2023-04-18T16:21:03.857Z,4.10
2023-04-18T16:23:33.023Z,5.40
2023-04-18T16:26:02.745Z,6.37
2023-04-18T16:28:30.934Z,7.00
2023-04-18T16:30:58.897Z,8.77
2023-04-18T16:33:27.118Z,8.50
2023-04-18T16:35:56.369Z,7.07
2023-04-18T16:38:25.817Z,8.00
2023-04-18T16:40:55.139Z,8.27
2023-04-18T16:43:26.885Z,6.40
2023-04-18T16:45:56.484Z,8.87
2023-04-18T16:48:24.475Z,7.53
2023-04-18T16:50:52.387Z,6.83
2023-04-18T16:53:20.714Z,6.97
2023-04-18T16:55:50.732Z,6.40
2023-04-18T16:58:18.600Z,7.47
2023-04-18T17:00:48.012Z,7.40
2023-04-18T17:03:15.884Z,6.40
2023-04-18T17:05:44.466Z,6.90
2023-04-18T17:08:12.166Z,7.07
2023-04-18T17:10:39.887Z,6.40
2023-04-18T17:13:08.134Z,6.37
2023-04-18T17:15:36.518Z,6.90
2023-04-18T17:18:05.723Z,6.57
2023-04-18T17:20:33.894Z,6.77
2023-04-18T17:23:01.657Z,6.80
2023-04-18T17:25:29.687Z,6.13
2023-04-18T17:27:57.551Z,6.50
2023-04-18T17:30:25.920Z,6.63
2023-04-18T17:32:53.822Z,6.30
2023-04-18T17:35:23.557Z,6.17
2023-04-18T17:37:52.873Z,6.33
2023-04-18T17:40:20.846Z,5.37
2023-04-18T17:42:48.813Z,5.97
2023-04-18T17:45:16.777Z,5.80
2023-04-18T17:47:44.796Z,6.00
2023-04-18T17:50:13.217Z,5.83
2023-04-18T17:52:42.663Z,5.87
2023-04-18T17:55:10.755Z,6.13
2023-04-18T17:57:38.462Z,5.40
2023-04-18T18:00:11.190Z,6.97
2023-04-18T18:02:40.590Z,6.10
2023-04-18T18:05:11.032Z,5.90
2023-04-18T18:07:38.733Z,6.10
2023-04-18T18:10:10.344Z,5.23
2023-04-18T18:12:38.158Z,5.10
2023-04-18T18:15:08.606Z,4.80
2023-04-18T18:17:36.513Z,5.47
2023-04-18T18:20:06.164Z,5.60
2023-04-18T18:22:34.226Z,5.90
2023-04-18T18:25:02.633Z,5.60
2023-04-18T18:27:31.995Z,5.03
2023-04-18T18:30:00.018Z,6.23
2023-04-18T18:32:28.300Z,5.63
2023-04-18T18:34:56.232Z,5.83
2023-04-18T18:37:26.053Z,5.30
2023-04-18T18:39:55.303Z,5.47
2023-04-18T18:42:23.607Z,5.77
2023-04-18T18:44:52.912Z,5.43
2023-04-18T18:47:21.152Z,5.50
2023-04-18T18:49:49.675Z,5.77
2023-04-18T18:52:17.674Z,5.90
2023-04-18T18:54:45.548Z,5.33
2023-04-18T18:57:13.843Z,5.27
2023-04-18T18:59:42.659Z,5.60
2023-04-18T19:02:12.538Z,5.93
2023-04-18T19:04:40.580Z,5.43
2023-04-18T19:07:08.421Z,6.10
2023-04-18T19:09:36.877Z,5.93
2023-04-18T19:12:05.388Z,5.67
2023-04-18T19:14:33.087Z,5.50
2023-04-18T19:17:01.028Z,6.00
2023-04-18T19:19:30.568Z,6.00
2023-04-18T19:22:00.465Z,5.40
2023-04-18T19:24:28.699Z,5.43
2023-04-18T19:26:57.398Z,6.20
2023-04-18T19:29:25.385Z,5.10
2023-04-18T19:31:53.594Z,5.80
2023-04-18T19:34:22.279Z,5.87
2023-04-18T19:36:51.775Z,5.40
2023-04-18T19:39:19.720Z,5.80
2023-04-18T19:41:48.178Z,5.70
2023-04-18T19:44:16.674Z,6.57
2023-04-18T19:46:44.564Z,6.83
2023-04-18T19:49:12.919Z,6.03
2023-04-18T19:51:41.138Z,5.70
2023-04-18T19:54:10.745Z,6.60
2023-04-18T19:56:39.063Z,6.47
2023-04-18T19:59:07.069Z,6.77
2023-04-18T20:01:35.581Z,6.53
2023-04-18T20:04:03.844Z,6.53
2023-04-18T20:06:32.018Z,5.70
2023-04-18T20:09:00.835Z,6.03
2023-04-18T20:11:30.371Z,5.90
2023-04-18T20:13:58.763Z,5.97
2023-04-18T20:16:26.788Z,6.47
2023-04-18T20:18:55.224Z,6.20
2023-04-18T20:21:23.089Z,5.97
2023-04-18T20:23:51.171Z,6.20
2023-04-18T20:26:19.351Z,6.53
2023-04-18T20:28:48.966Z,5.97
2023-04-18T20:31:16.946Z,5.63
2023-04-18T20:33:44.800Z,6.27
2023-04-18T20:36:14.115Z,6.10
2023-04-18T20:38:42.074Z,6.10
2023-04-18T20:41:11.006Z,5.80
2023-04-18T20:43:39.391Z,6.23
2023-04-18T20:46:12.703Z,6.30
2023-04-18T20:48:41.276Z,6.70
2023-04-18T20:51:09.139Z,6.20
2023-04-18T20:53:36.998Z,5.53
2023-04-18T20:56:05.015Z,5.63
2023-04-18T20:58:33.335Z,5.63
2023-04-18T21:01:01.139Z,6.40
2023-04-18T21:03:31.280Z,6.63
2023-04-18T21:05:59.332Z,6.43
2023-04-18T21:08:27.859Z,5.93
2023-04-18T21:10:55.890Z,5.50
2023-04-18T21:13:23.790Z,5.70
2023-04-18T21:15:52.023Z,5.37
2023-04-18T21:18:20.556Z,5.43
2023-04-18T21:20:50.043Z,5.83
2023-04-18T21:23:17.975Z,6.13
2023-04-18T21:25:45.982Z,6.40
2023-04-18T21:28:13.949Z,5.60
2023-04-18T21:30:41.989Z,5.33
2023-04-18T21:33:09.867Z,5.70
2023-04-18T21:35:38.188Z,5.27
2023-04-18T21:38:07.641Z,5.40
2023-04-18T21:40:35.568Z,5.10
2023-04-18T21:43:03.993Z,5.70
2023-04-18T21:45:32.340Z,5.60
2023-04-18T21:48:00.553Z,4.83
2023-04-18T21:50:29.658Z,5.30
2023-04-18T21:52:58.137Z,5.40
2023-04-18T21:55:27.835Z,5.37
2023-04-18T21:57:56.540Z,5.10
2023-04-18T22:00:25.168Z,5.10
2023-04-18T22:02:53.381Z,5.13
2023-04-18T22:05:21.989Z,5.40
2023-04-18T22:07:57.436Z,5.17
2023-04-18T22:10:27.983Z,5.87
2023-04-18T22:12:56.307Z,5.43
2023-04-18T22:15:27.153Z,5.17
2023-04-18T22:17:55.372Z,5.40
2023-04-18T22:20:25.582Z,4.67
2023-04-18T22:22:53.529Z,5.50
2023-04-18T22:25:21.687Z,4.77
2023-04-18T22:27:51.162Z,5.03
2023-04-18T22:30:19.249Z,5.70
2023-04-18T22:32:47.280Z,5.03
2023-04-18T22:35:15.203Z,4.87
2023-04-18T22:37:43.157Z,5.47
2023-04-18T22:40:11.634Z,5.63
2023-04-18T22:42:39.612Z,4.80
2023-04-18T22:45:10.154Z,5.67
2023-04-18T22:47:37.924Z,5.20
2023-04-18T22:50:06.531Z,4.83
2023-04-18T22:52:34.988Z,4.83
2023-04-18T22:55:03.291Z,4.73
2023-04-18T22:57:31.205Z,5.13
2023-04-18T22:59:59.546Z,5.37
2023-04-18T23:02:29.121Z,4.90
2023-04-18T23:05:00.156Z,6.07
2023-04-18T23:07:28.112Z,4.77
2023-04-18T23:09:56.405Z,4.60
2023-04-18T23:12:24.528Z,4.97
2023-04-18T23:14:52.565Z,5.30
2023-04-18T23:17:20.438Z,5.03
2023-04-18T23:19:49.861Z,4.77
2023-04-18T23:22:17.819Z,4.57
2023-04-18T23:24:46.222Z,4.90
2023-04-18T23:27:14.144Z,5.17
2023-04-18T23:29:42.963Z,4.97
2023-04-18T23:32:11.171Z,5.30
2023-04-18T23:34:39.058Z,4.70
2023-04-18T23:37:10.130Z,5.30
2023-04-18T23:39:38.173Z,4.40
2023-04-18T23:42:06.294Z,5.40
2023-04-18T23:44:34.577Z,5.13
2023-04-18T23:47:02.540Z,4.87
2023-04-18T23:49:30.961Z,4.93
2023-04-18T23:51:58.974Z,4.20
2023-04-18T23:54:28.372Z,4.93
2023-04-18T23:56:57.467Z,5.63
2023-04-18T23:59:25.411Z,5.07
